• Join FlightAware (Why Join?)
  • Login
  • US Flag 
01:49AM EDT


 

Airport Tracker/Info


-or-


 

Live Flight TrackerFlight Track Log ✈ MAS93 ✈ 30-Apr-2012 ✈ KLAX - RJAA / NRT

Flight Track Log - Related Links

Times and Time Zones

All times are in EDT time to prevent confusion due to time zone crossing. See the MAS93 flight status page for this flight to view local times or setup timezone preferences in your user account.

Time Position Orientation Groundspeed Altitude Reporting Facility
EDT Latitude Longitude Course Direction KTS MPH feet Rate Location/Type
08:26PM 34.0584 -118.5209 196° South  Level FlightAware Approximate
08:27PM 33.9358 -118.5625 280° West 210 242 3,900  Level Los Angeles Center
08:28PM 33.9469 -118.6378 311° West 230 265 5,200 1,740 Climbing Los Angeles Center
08:29PM 33.9975 -118.7069 354° North 247 284 7,400 1,860 Climbing Los Angeles Center
08:30PM 34.0706 -118.7167 36° Northeast 223 257 9,000 900 Climbing Los Angeles Center
08:31PM 34.1386 -118.6561 24° Northeast 223 257 9,300 840 Climbing Los Angeles Center
08:32PM 34.2125 -118.6156 341° North 252 290 10,700 1,140 Climbing Los Angeles Center
08:33PM 34.3033 -118.6536 340° North 304 350 11,600 1,500 Climbing Los Angeles Center
08:34PM 34.4006 -118.6967 341° North 328 377 13,700 1,620 Climbing Los Angeles Center
08:35PM 34.4917 -118.7347 341° North 352 405 14,900 660 Climbing Los Angeles Center
08:36PM 34.5950 -118.7783 341° North 378 435 15,100 1,140 Climbing Los Angeles Center
08:37PM 34.6964 -118.8219 339° North 388 447 17,200 1,800 Climbing Los Angeles Center
08:38PM 34.8017 -118.8711 331° Northwest 393 452 18,800 1,620 Climbing Los Angeles Center
08:39PM 34.9003 -118.9378 324° Northwest 400 460 20,500 1,620 Climbing Los Angeles Center
08:40PM 34.9944 -119.0219 321° Northwest 407 468 22,100 1,560 Climbing Los Angeles Center
08:41PM 35.0861 -119.1139 321° Northwest 419 482 23,700 1,440 Climbing Los Angeles Center
08:42PM 35.1797 -119.2064 322° Northwest 426 490 25,000 1,260 Climbing Los Angeles Center
08:43PM 35.2775 -119.2992 321° Northwest 438 504 26,300 1,140 Climbing Los Angeles Center
08:44PM 35.3750 -119.3972 322° Northwest 449 517 27,300 960 Climbing Los Angeles Center
08:46PM 35.5728 -119.5900 322° Northwest 465 535 29,200 960 Climbing Oakland Center
08:47PM 35.6761 -119.6906 319° Northwest 472 543 30,200 1,140 Climbing Oakland Center
08:48PM 35.7731 -119.7939 322° Northwest 472 543 31,500 900 Climbing Oakland Center
08:49PM 35.8764 -119.8922 320° Northwest 472 543 32,000 240 Climbing Oakland Center
08:50PM 35.9731 -119.9908 321° Northwest 467 537 32,000  Level Oakland Center
08:51PM 36.0719 -120.0897 320° Northwest 461 531 32,000  Level Oakland Center
08:52PM 36.1667 -120.1892 322° Northwest 461 531 32,000  Level Oakland Center
08:53PM 36.2672 -120.2883 320° Northwest 461 531 32,000  Level Oakland Center
08:54PM 36.3617 -120.3881 321° Northwest 456 525 32,000  Level Oakland Center
08:55PM 36.4581 -120.4856 320° Northwest 451 519 32,000  Level Oakland Center
08:56PM 36.5522 -120.5831 319° Northwest 451 519 32,000  Level Oakland Center
08:57PM 36.6464 -120.6836 322° Northwest 451 519 32,000  Level Oakland Center
08:58PM 36.7428 -120.7792 322° Northwest 451 519 32,000  Level Oakland Center
08:59PM 36.8325 -120.8672 321° Northwest 441 507 32,000  Level Oakland Center
09:00PM 36.9283 -120.9658 319° Northwest 434 499 32,000  Level Oakland Center
09:01PM 37.0222 -121.0672 321° Northwest 429 494 32,000  Level Oakland Center
09:02PM 37.1161 -121.1636 319° Northwest 434 499 32,000  Level Oakland Center
09:03PM 37.2097 -121.2656 320° Northwest 434 499 32,000  Level Oakland Center
09:04PM 37.3033 -121.3653 319° Northwest 434 499 32,000  Level Oakland Center
09:05PM 37.4072 -121.4781 320° Northwest 439 505 32,000  Level Oakland Center
09:06PM 37.5028 -121.5783 322° Northwest 439 505 32,000  Level Oakland Center
09:07PM 37.5961 -121.6708 327° Northwest 439 505 32,000  Level Oakland Center
09:08PM 37.6997 -121.7558 328° Northwest 439 505 32,000  Level Oakland Center
09:09PM 37.8014 -121.8356 328° Northwest 439 505 32,000  Level Oakland Center
09:10PM 37.8969 -121.9106 327° Northwest 439 505 32,000  Level Oakland Center
09:11PM 38.0003 -121.9961 329° Northwest 444 511 32,000  Level Oakland Center
09:12PM 38.1081 -122.0794 325° Northwest 444 511 32,000  Level Oakland Center
09:13PM 38.2178 -122.1789 329° Northwest 444 511 32,000 300 Level Oakland Center
09:14PM 38.3150 -122.2519 327° Northwest 444 511 32,700 900 Climbing Oakland Center
09:15PM 38.4161 -122.3358 327° Northwest 444 511 33,900 600 Climbing Oakland Center
09:16PM 38.5175 -122.4200 327° Northwest 439 505 34,000  Climbing Oakland Center
09:17PM 38.6206 -122.5044 327° Northwest 434 499 34,000  Level Oakland Center
09:18PM 38.7197 -122.5864 327° Northwest 434 499 34,000  Level Oakland Center
09:19PM 38.8186 -122.6686 327° Northwest 434 499 34,000  Level Oakland Center
09:20PM 38.9194 -122.7536 324° Northwest 434 499 34,000  Level Oakland Center
09:21PM 39.0244 -122.8525 331° Northwest 434 499 34,000  Level Oakland Center
09:22PM 39.1172 -122.9192 326° Northwest 434 499 34,000  Level Oakland Center
09:23PM 39.2158 -123.0050 328° Northwest 429 494 34,000  Level Oakland Center
09:24PM 39.3164 -123.0858 326° Northwest 429 494 34,000  Level Oakland Center
09:25PM 39.4169 -123.1747 326° Northwest 429 494 34,000  Level Oakland Center
09:26PM 39.5258 -123.2697 326° Northwest 434 499 34,000  Level Oakland Center
09:27PM 39.6242 -123.3564 327° Northwest 434 499 34,000  Level Oakland Center
09:28PM 39.7225 -123.4406 327° Northwest 434 499 34,000  Level Oakland Center
09:30PM 39.9400 -123.6281 326° Northwest 425 489 34,000  Level Seattle Center
09:31PM 40.0381 -123.7150 326° Northwest 426 490 34,000  Level Seattle Center
09:32PM 40.1353 -123.7997 326° Northwest 424 488 34,000  Level Seattle Center
09:33PM 40.2322 -123.8853 326° Northwest 423 487 34,000  Level Seattle Center
09:34PM 40.3292 -123.9697 326° Northwest 422 486 34,000  Level Seattle Center
09:35PM 40.4233 -124.0539 326° Northwest 415 478 34,000  Level Seattle Center
09:36PM 40.5206 -124.1406 325° Northwest 420 483 34,000  Level Seattle Center
09:37PM 40.6272 -124.2372 326° Northwest 418 481 34,000  Level Seattle Center
09:38PM 40.7222 -124.3228 326° Northwest 415 478 34,000  Level Seattle Center
09:39PM 40.8161 -124.4081 326° Northwest 414 476 34,000  Level Seattle Center
09:40PM 40.9106 -124.4917 326° Northwest 411 473 34,000  Level Seattle Center
09:41PM 41.0039 -124.5739 325° Northwest 406 467 34,000  Level Seattle Center
09:42PM 41.0958 -124.6586 325° Northwest 404 465 34,000  Level Seattle Center
09:43PM 41.1875 -124.7428 326° Northwest 402 463 34,000  Level Seattle Center
09:44PM 41.2972 -124.8428 326° Northwest 400 460 34,000  Level Seattle Center
09:45PM 41.3872 -124.9242 325° Northwest 396 456 34,000  Level Seattle Center
09:46PM 41.4778 -125.0081 325° Northwest 396 456 34,000  Level Seattle Center
09:47PM 41.5678 -125.0931 325° Northwest 396 456 34,000  Level Seattle Center
09:48PM 41.6586 -125.1772 326° Northwest 397 457 34,000  Level Seattle Center
09:49PM 41.7494 -125.2606 325° Northwest 397 457 34,000  Level Seattle Center
09:50PM 41.8411 -125.3458 325° Northwest 399 459 34,000  Level Seattle Center
09:51PM 41.9322 -125.4308 325° Northwest 400 460 34,000  Level Seattle Center
09:52PM 42.0236 -125.5158 324° Northwest 399 459 34,000  Level Seattle Center
09:53PM 42.1133 -125.6031 325° Northwest 398 458 34,000  Level Seattle Center
09:54PM 42.2214 -125.7039 325° Northwest 395 455 34,000  Level Seattle Center
09:55PM 42.3108 -125.7897 325° Northwest 395 455 34,000  Level Seattle Center
09:56PM 42.4006 -125.8756 325° Northwest 395 455 34,000  Level Seattle Center
09:57PM 42.4914 -125.9614 325° Northwest 396 456 34,000  Level Seattle Center
09:58PM 42.5806 -126.0478 325° Northwest 396 456 34,000  Level Seattle Center
09:59PM 42.6697 -126.1339 324° Northwest 394 453 34,000  Level Seattle Center
10:00PM 42.7581 -126.2211 320° Northwest 394 453 34,000  Level Seattle Center
10:01PM 42.8428 -126.3172 322° Northwest 389 448 34,000  Level Seattle Center
10:02PM 42.9283 -126.4100 321° Northwest 391 450 34,000  Level Seattle Center
10:03PM 43.0147 -126.5042 322° Northwest 393 452 34,000  Level Seattle Center
10:51PM 47.0333 -131.2000 321° Northwest 393 452 34,000  Level Oakland Oceanic (ODAPS)
11:09PM 48.6500 -133.1833 319° Northwest 410 472 34,000  Level Oakland Oceanic (ODAPS)
11:20PM 49.6000 -134.4500 319° Northwest 422 486 34,000  Level Oakland Oceanic (ODAPS)
11:25PM 50.0000 -135.0000 304° West 423 487 34,000  Level Oakland Oceanic (ODAPS)
11:33PM 50.5358 -136.2480 303° West 423 487 34,000  Level FlightAware Transoceanic
11:34PM 50.5998 -136.4012 303° West 423 487 34,000  Level FlightAware Transoceanic
11:35PM 50.6636 -136.5547 303° West 423 487 34,000  Level FlightAware Transoceanic
11:36PM 50.7272 -136.7088 303° West 423 487 34,000  Level FlightAware Transoceanic
11:37PM 50.7907 -136.8632 303° West 423 487 34,000  Level FlightAware Transoceanic
11:38PM 50.8539 -137.0181 303° West 423 487 34,000  Level FlightAware Transoceanic
11:39PM 50.9169 -137.1733 303° West 423 487 34,000  Level FlightAware Transoceanic
11:40PM 50.9797 -137.3290 303° West 423 487 34,000  Level FlightAware Transoceanic
11:41PM 51.0423 -137.4852 302° West 423 487 34,000  Level FlightAware Transoceanic
11:42PM 51.1047 -137.6417 302° West 423 487 34,000  Level FlightAware Transoceanic
11:43PM 51.1669 -137.7986 302° West 423 487 34,000  Level FlightAware Transoceanic
11:44PM 51.2288 -137.9560 302° West 423 487 34,000  Level FlightAware Transoceanic
11:45PM 51.2906 -138.1138 302° West 423 487 34,000  Level FlightAware Transoceanic
11:46PM 51.3521 -138.2721 302° West 423 487 34,000  Level FlightAware Transoceanic
11:47PM 51.4135 -138.4307 302° West 423 487 34,000  Level FlightAware Transoceanic
11:48PM 51.4746 -138.5898 302° West 423 487 34,000  Level FlightAware Transoceanic
11:49PM 51.5355 -138.7493 301° West 423 487 34,000  Level FlightAware Transoceanic
11:50PM 51.5961 -138.9093 301° West 423 487 34,000  Level FlightAware Transoceanic
11:51PM 51.6566 -139.0696 301° West 423 487 34,000  Level FlightAware Transoceanic
11:52PM 51.7169 -139.2304 301° West 423 487 34,000  Level FlightAware Transoceanic
11:53PM 51.7769 -139.3916 301° West 423 487 34,000  Level FlightAware Transoceanic
11:54PM 51.8367 -139.5533 301° West 423 487 34,000  Level FlightAware Transoceanic
11:55PM 51.8963 -139.7153 301° West 423 487 34,000  Level FlightAware Transoceanic
11:56PM 51.9556 -139.8778 301° West 423 487 34,000  Level FlightAware Transoceanic
11:57PM 52.0157 -140.0430 301° West 423 487 34,000  Level FlightAware Transoceanic
11:58PM 52.0785 -140.2154 301° West 423 487 34,000  Level FlightAware Transoceanic
11:59PM 52.1410 -140.3883 300° West 423 487 34,000  Level FlightAware Transoceanic
12:00AM 52.2033 -140.5617 300° West 423 487 34,000  Level FlightAware Transoceanic
12:01AM 52.2653 -140.7355 300° West 423 487 34,000  Level FlightAware Transoceanic
12:02AM 52.3270 -140.9099 300° West 423 487 34,000  Level FlightAware Transoceanic
12:03AM 52.3885 -141.0847 300° West 423 487 34,000  Level FlightAware Transoceanic
12:04AM 52.4498 -141.2600 300° West 423 487 34,000  Level FlightAware Transoceanic
12:05AM 52.5107 -141.4358 300° West 423 487 34,000  Level FlightAware Transoceanic
12:06AM 52.5715 -141.6121 299° West 423 487 34,000  Level FlightAware Transoceanic
12:07AM 52.6319 -141.7889 299° West 423 487 34,000  Level FlightAware Transoceanic
12:08AM 52.6921 -141.9662 299° West 423 487 34,000  Level FlightAware Transoceanic
12:09AM 52.7520 -142.1439 299° West 423 487 34,000  Level FlightAware Transoceanic
12:10AM 52.8117 -142.3222 299° West 423 487 34,000  Level FlightAware Transoceanic
12:11AM 52.8711 -142.5009 299° West 423 487 34,000  Level FlightAware Transoceanic
12:12AM 52.9302 -142.6801 299° West 423 487 34,000  Level FlightAware Transoceanic
12:13AM 52.9891 -142.8598 298° West 423 487 34,000  Level FlightAware Transoceanic
12:14AM 53.0476 -143.0400 298° West 423 487 34,000  Level FlightAware Transoceanic
12:15AM 53.1059 -143.2207 298° West 423 487 34,000  Level FlightAware Transoceanic
12:16AM 53.1640 -143.4019 298° West 423 487 34,000  Level FlightAware Transoceanic
12:17AM 53.2217 -143.5836 298° West 423 487 34,000  Level FlightAware Transoceanic
12:18AM 53.2792 -143.7657 298° West 423 487 34,000  Level FlightAware Transoceanic
12:19AM 53.3364 -143.9484 298° West 423 487 34,000  Level FlightAware Transoceanic
12:20AM 53.3933 -144.1315 297° West 423 487 34,000  Level FlightAware Transoceanic
12:21AM 53.4500 -144.3151 297° West 423 487 34,000  Level FlightAware Transoceanic
12:22AM 53.5063 -144.4992 297° West 423 487 34,000  Level FlightAware Transoceanic
12:23AM 53.5624 -144.6838 297° West 423 487 34,000  Level FlightAware Transoceanic
12:24AM 53.6182 -144.8689 297° West 423 487 34,000  Level FlightAware Transoceanic
12:25AM 53.6737 -145.0545 297° West 423 487 34,000  Level FlightAware Transoceanic
12:26AM 53.7289 -145.2406 297° West 423 487 34,000  Level FlightAware Transoceanic
12:27AM 53.7838 -145.4271 296° West 423 487 34,000  Level FlightAware Transoceanic
12:28AM 53.8385 -145.6142 296° West 423 487 34,000  Level FlightAware Transoceanic
12:29AM 53.8928 -145.8017 296° West 423 487 34,000  Level FlightAware Transoceanic
12:30AM 53.9468 -145.9897 296° West 423 487 34,000  Level FlightAware Transoceanic
12:31AM 54.0006 -146.1782 296° West 423 487 34,000  Level FlightAware Transoceanic
12:32AM 54.0541 -146.3672 296° West 423 487 34,000  Level FlightAware Transoceanic
12:33AM 54.1072 -146.5567 295° West 423 487 34,000  Level FlightAware Transoceanic
12:34AM 54.1601 -146.7467 295° West 423 487 34,000  Level FlightAware Transoceanic
12:35AM 54.2127 -146.9371 295° West 423 487 34,000  Level FlightAware Transoceanic
12:36AM 54.2649 -147.1281 295° West 423 487 34,000  Level FlightAware Transoceanic
12:37AM 54.3169 -147.3195 295° West 423 487 34,000  Level FlightAware Transoceanic
12:38AM 54.3685 -147.5114 295° West 423 487 34,000  Level FlightAware Transoceanic
12:39AM 54.4199 -147.7037 295° West 423 487 34,000  Level FlightAware Transoceanic
12:40AM 54.4710 -147.8966 294° West 423 487 34,000  Level FlightAware Transoceanic
12:41AM 54.5217 -148.0899 294° West 423 487 34,000  Level FlightAware Transoceanic
12:42AM 54.5721 -148.2838 294° West 423 487 34,000  Level FlightAware Transoceanic
12:43AM 54.6222 -148.4781 114° Southeast 423 487 34,000  Level FlightAware Transoceanic
12:43AM 52.0000 -140.0000 301° West 444 511 34,000  Level Oakland Oceanic (ODAPS)
12:53AM 55.0000 -150.0000 360° North 456 525 34,000  Level Oakland Oceanic (ODAPS)
01:12AM 55.0000 -150.0000 277° West 456 525 34,000  Level Oakland Oceanic (ODAPS)
01:21AM 55.3000 -156.6667 270° West 440 506 34,000  Level Anchorage Center
01:22AM 55.3000 -156.8833 270° West 440 506 34,000  Level Anchorage Center
01:23AM 55.3000 -157.0667 276° West 450 518 34,000  Level Anchorage Center
01:24AM 55.3167 -157.3333 270° West 460 529 34,000  Level Anchorage Center
01:25AM 55.3167 -157.5667 270° West 450 518 34,000  Level Anchorage Center
01:26AM 55.3167 -157.7833 270° West 450 518 34,000  Level Anchorage Center
01:27AM 55.3167 -158.0167 270° West 450 518 34,000  Level Anchorage Center
01:28AM 55.3167 -158.2167 270° West 460 529 34,000  Level Anchorage Center
01:29AM 55.3167 -158.4333 270° West 460 529 34,000  Level Anchorage Center
01:30AM 55.3167 -158.6667 270° West 460 529 34,000  Level Anchorage Center
01:31AM 55.3167 -158.8833 270° West 450 518 34,000  Level Anchorage Center
01:32AM 55.3167 -159.1167 270° West 460 529 34,000  Level Anchorage Center
01:33AM 55.3167 -159.3500 270° West 450 518 34,000  Level Anchorage Center
01:34AM 55.3167 -159.5667 270° West 450 518 34,000  Level Anchorage Center
01:35AM 55.3167 -159.8000 270° West 460 529 34,000  Level Anchorage Center
01:36AM 55.3167 -160.0333 270° West 460 529 34,000  Level Anchorage Center
01:37AM 55.3167 -160.2500 270° West 450 518 34,000  Level Anchorage Center
01:38AM 55.3167 -160.4667 263° West 460 529 34,100 540 Climbing Anchorage Center
01:39AM 55.3000 -160.7000 270° West 460 529 35,200 900 Climbing Anchorage Center
01:40AM 55.3000 -160.9167 270° West 450 518 36,000 360 Climbing Anchorage Center
01:41AM 55.3000 -161.1500 270° West 450 518 36,000  Level Anchorage Center
01:42AM 55.3000 -161.3667 264° West 460 529 36,000  Level Anchorage Center
01:43AM 55.2833 -161.6333 270° West 450 518 36,000  Level Anchorage Center
01:44AM 55.2833 -161.8667 270° West 450 518 36,000  Level Anchorage Center
01:45AM 55.2833 -162.0833 263° West 450 518 36,000  Level Anchorage Center
01:46AM 55.2667 -162.3167 270° West 460 529 36,000  Level Anchorage Center
01:47AM 55.2667 -162.5333 270° West 450 518 36,000  Level Anchorage Center
01:48AM 55.2667 -162.7667 270° West 460 529 36,000  Level Anchorage Center
01:49AM 55.2667 -162.9833 270° West 450 518 36,000  Level Anchorage Center
01:50AM 55.2667 -163.2167 270° West 450 518 36,000  Level Anchorage Center
01:51AM 55.2667 -163.4333 277° West 450 518 36,000  Level Anchorage Center
01:52AM 55.2833 -163.6667 270° West 460 529 36,000  Level Anchorage Center
01:53AM 55.2833 -163.8667 270° West 440 506 36,000  Level Anchorage Center
01:54AM 55.2833 -164.1167 270° West 470 541 36,000  Level Anchorage Center
01:55AM 55.2833 -164.3333 270° West 460 529 36,000  Level Anchorage Center
01:56AM 55.2833 -164.5667 270° West 460 529 36,000  Level Anchorage Center
01:57AM 55.2833 -164.7667 270° West 480 552 36,000  Level Anchorage Center
01:58AM 55.2833 -164.9833 277° West 450 518 36,000  Level Anchorage Center
01:59AM 55.3000 -165.2167 263° West 460 529 36,000  Level Anchorage Center
02:00AM 55.2833 -165.4500 270° West 470 541 36,000  Level Anchorage Center
02:01AM 55.2833 -165.6667 270° West 460 529 36,000  Level Anchorage Center
02:04AM 55.2833 -166.2667 270° West 460 529 36,000  Level Anchorage Center
02:05AM 55.2833 -166.5000 270° West 480 552 36,000  Level Anchorage Center
02:06AM 55.2833 -166.7167 270° West 460 529 36,000  Level Anchorage Center
02:07AM 55.2833 -166.9500 270° West 480 552 36,000  Level Anchorage Center
02:08AM 55.2833 -167.1333 263° West 470 541 36,000  Level Anchorage Center
02:09AM 55.2667 -167.3667 270° West 470 541 36,000  Level Anchorage Center
02:10AM 55.2667 -167.6000 270° West 470 541 36,000  Level Anchorage Center
02:11AM 55.2667 -167.8333 270° West 470 541 36,000  Level Anchorage Center
02:12AM 55.2667 -168.0667 263° West 450 518 36,000  Level Anchorage Center
02:13AM 55.2500 -168.3000 270° West 470 541 36,000  Level Anchorage Center
02:14AM 55.2500 -168.5333 262° West 470 541 36,000  Level Anchorage Center
02:15AM 55.2333 -168.7500 270° West 460 529 36,000  Level Anchorage Center
02:16AM 55.2333 -168.9667 270° West 440 506 36,000  Level Anchorage Center
02:17AM 55.2333 -169.2000 263° West 460 529 36,000  Level Anchorage Center
02:18AM 55.2167 -169.4333 270° West 460 529 36,000  Level Anchorage Center
02:19AM 55.2167 -169.6500 262° West 440 506 36,000  Level Anchorage Center
02:20AM 55.2000 -169.8667 270° West 450 518 36,000  Level Anchorage Center
02:21AM 55.2000 -170.0833 262° West 430 495 36,000  Level Anchorage Center
02:22AM 55.1833 -170.2833 270° West 420 483 36,000  Level Anchorage Center
02:23AM 55.1833 -170.5000 262° West 430 495 36,000  Level Anchorage Center
02:24AM 55.1667 -170.7000 270° West 430 495 36,000  Level Anchorage Center
02:25AM 55.1667 -170.9333 262° West 450 518 36,000  Level Anchorage Center
02:26AM 55.1500 -171.1333 262° West 420 483 36,000  Level Anchorage Center
02:27AM 55.1333 -171.3500 270° West 440 506 36,000  Level Anchorage Center
02:28AM 55.1333 -171.5833 262° West 460 529 36,000  Level Anchorage Center
02:29AM 55.1167 -171.8000 270° West 450 518 36,000  Level Anchorage Center
02:30AM 55.1167 -172.0167 262° West 440 506 36,000  Level Anchorage Center
02:31AM 55.1000 -172.2333 262° West 440 506 36,000  Level Anchorage Center
02:32AM 55.0833 -172.4500 262° West 450 518 36,000  Level Anchorage Center
02:33AM 55.0667 -172.6500 270° West 440 506 36,000  Level Anchorage Center
02:34AM 55.0667 -172.8667 262° West 430 495 36,000  Level Anchorage Center
02:35AM 55.0500 -173.0833 262° West 430 495 36,000  Level Anchorage Center
02:36AM 55.0333 -173.2833 262° West 430 495 36,000  Level Anchorage Center
02:37AM 55.0167 -173.5000 262° West 430 495 36,000  Level Anchorage Center
02:38AM 55.0000 -173.7167 262° West 440 506 36,000  Level Anchorage Center
02:39AM 54.9833 -173.9167 270° West 430 495 36,000  Level Anchorage Center
02:40AM 54.9833 -174.1333 262° West 430 495 36,000  Level Anchorage Center
02:41AM 54.9667 -174.3333 262° West 430 495 36,000  Level Anchorage Center
02:42AM 54.9500 -174.5333 262° West 420 483 36,000  Level Anchorage Center
02:43AM 54.9333 -174.7333 262° West 420 483 36,000  Level Anchorage Center
02:44AM 54.9167 -174.9500 262° West 420 483 36,000  Level Anchorage Center
02:45AM 54.9000 -175.1500 262° West 420 483 36,000  Level Anchorage Center
02:46AM 54.8833 -175.3500 262° West 430 495 36,000  Level Anchorage Center
02:47AM 54.8667 -175.5667 262° West 420 483 36,000  Level Anchorage Center
02:48AM 54.8500 -175.7667 262° West 420 483 36,000  Level Anchorage Center
02:49AM 54.8333 -175.9667 262° West 420 483 36,000  Level Anchorage Center
02:50AM 54.8167 -176.1667 262° West 430 495 36,000  Level Anchorage Center
02:57AM 54.6833 -177.7167 262° West 434 499 36,000  Level Anchorage Center
02:59AM 54.6500 -178.1167 260° West 434 499 36,000  Level Anchorage Center
03:15AM 54.2667 178.6667 263° West 440 506 36,000  Level Anchorage Center
03:16AM 54.2500 178.4500 251° West 430 495 36,000  Level Anchorage Center
03:17AM 54.2167 178.2833 256° West 430 495 36,000  Level Anchorage Center
03:18AM 54.1833 178.0500 260° West 430 495 36,000  Level Anchorage Center
03:19AM 54.1667 177.8833 255° West 440 506 36,000  Level Anchorage Center
03:20AM 54.1333 177.6667 255° West 440 506 36,000  Level Anchorage Center
03:21AM 54.1000 177.4500 261° West 430 495 36,000  Level Anchorage Center
03:22AM 54.0833 177.2667 255° West 430 495 36,000  Level Anchorage Center
03:23AM 54.0500 177.0500 251° West 430 495 36,000  Level Anchorage Center
03:24AM 54.0167 176.8833 263° West 440 506 36,000  Level Anchorage Center
03:25AM 54.0000 176.6500 251° West 440 506 36,000  Level Anchorage Center
03:26AM 53.9667 176.4833 255° West 440 506 36,000 300 Level Anchorage Center
03:27AM 53.9333 176.2667 253° West 430 495 36,700 600 Climbing Anchorage Center
03:28AM 53.9000 176.0833 255° West 440 506 37,300 600 Climbing Anchorage Center
03:29AM 53.8667 175.8667 263° West 430 495 38,000 300 Climbing Anchorage Center
03:30AM 53.8500 175.6500 251° West 440 506 38,000  Level Anchorage Center
03:31AM 53.8167 175.4833 255° West 430 495 38,000  Level Anchorage Center
03:32AM 53.7833 175.2667 251° West 430 495 38,000  Level Anchorage Center
03:33AM 53.7500 175.1000 256° West 430 495 38,000  Level Anchorage Center
03:34AM 53.7167 174.8833 251° West 450 518 38,000  Level Anchorage Center
03:35AM 53.6833 174.7167 256° West 430 495 38,000  Level Anchorage Center
03:36AM 53.6500 174.5000 256° West 430 495 38,000  Level Anchorage Center
03:37AM 53.6167 174.2833 253° West 440 506 38,000  Level Anchorage Center
03:38AM 53.5833 174.1000 256° West 440 506 38,000  Level Anchorage Center
03:39AM 53.5500 173.8833 251° West 440 506 38,000  Level Anchorage Center
03:40AM 53.5167 173.7167 256° West 440 506 38,000  Level Anchorage Center
03:41AM 53.4833 173.5000 251° West 440 506 38,000  Level Anchorage Center
03:42AM 53.4500 173.3333 249° West 450 518 38,000  Level Anchorage Center
03:43AM 53.4000 173.1167 254° West 440 506 38,000  Level Anchorage Center
03:44AM 53.3667 172.9167 243° Southwest 440 506 38,000  Level Anchorage Center
03:45AM 53.3167 172.7500 256° West 440 506 38,000  Level Anchorage Center
03:46AM 53.2833 172.5333 243° Southwest 440 506 38,000  Level Anchorage Center
03:47AM 53.2333 172.3667 247° West 440 506 38,000  Level Anchorage Center
03:48AM 53.1833 172.1667 252° West 430 495 38,000  Level Anchorage Center
03:49AM 53.1500 172.0000 255° West 430 495 38,000  Level Anchorage Center
03:50AM 53.1167 171.8000 247° West 430 495 38,000  Level Anchorage Center
03:51AM 53.0667 171.6000 244° Southwest 440 506 38,000  Level Anchorage Center
03:52AM 53.0167 171.4333 248° West 450 518 38,000  Level Anchorage Center
03:53AM 52.9667 171.2333 252° West 430 495 38,000  Level Anchorage Center
03:54AM 52.9333 171.0667 248° West 430 495 38,000  Level Anchorage Center
03:55AM 52.8833 170.8667 252° West 430 495 38,000  Level Anchorage Center
03:56AM 52.8500 170.7000 248° West 430 495 38,000  Level Anchorage Center
03:57AM 52.8000 170.5000 241° Southwest 440 506 38,000  Level Anchorage Center
03:58AM 52.7500 170.3500 248° West 430 495 38,000  Level Anchorage Center
03:59AM 52.7000 170.1500 255° West 440 506 38,000  Level Anchorage Center
04:00AM 52.6667 169.9500 244° Southwest 430 495 38,000  Level Anchorage Center
04:01AM 52.6167 169.7833 248° West 440 506 38,000  Level Anchorage Center
04:02AM 52.5667 169.5833 250° West 440 506 38,000  Level Anchorage Center
04:03AM 52.5333 169.4333 248° West 420 483 38,000  Level Anchorage Center
04:04AM 52.4833 169.2333 250° West 420 483 38,000  Level Anchorage Center
04:05AM 52.4500 169.0833 246° West 410 472 38,000  Level Anchorage Center
04:06AM 52.4000 168.9000 241° Southwest 420 483 38,000  Level Anchorage Center
04:07AM 52.3500 168.7500 246° West 420 483 38,000  Level Anchorage Center
04:08AM 52.3000 168.5667 244° Southwest 420 483 38,000  Level Anchorage Center
04:10AM 52.2000 168.2333 254° West 430 495 38,000  Level Anchorage Center
04:11AM 52.1667 168.0500 239° Southwest 420 483 38,000  Level Anchorage Center
04:12AM 52.1167 167.9167 246° West 430 495 38,000  Level Anchorage Center
04:13AM 52.0667 167.7333 250° West 410 472 38,000  Level Anchorage Center
04:14AM 52.0333 167.5833 242° Southwest 410 472 38,000  Level Anchorage Center
04:15AM 51.9833 167.4333 241° Southwest 400 460 38,000  Level Anchorage Center
04:23AM 51.5300 166.1482 240° Southwest  Level FlightAware Approximate
04:24AM 51.4692 165.9807 240° Southwest  Level FlightAware Approximate
04:25AM 51.4081 165.8136 240° Southwest  Level FlightAware Approximate
04:26AM 51.3468 165.6469 239° Southwest  Level FlightAware Approximate
04:27AM 51.2846 165.4814 239° Southwest  Level FlightAware Approximate
04:28AM 51.2221 165.3163 239° Southwest  Level FlightAware Approximate
04:29AM 51.1594 165.1516 239° Southwest  Level FlightAware Approximate
04:30AM 51.0965 164.9874 239° Southwest  Level FlightAware Approximate
04:31AM 51.0334 164.8237 238° Southwest  Level FlightAware Approximate
04:32AM 50.9700 164.6604 238° Southwest  Level FlightAware Approximate
04:33AM 50.9064 164.4975 238° Southwest  Level FlightAware Approximate
04:34AM 50.8417 164.3360 238° Southwest  Level FlightAware Approximate
04:35AM 50.7768 164.1749 237° Southwest  Level FlightAware Approximate
04:36AM 50.7116 164.0143 237° Southwest  Level FlightAware Approximate
04:37AM 50.6462 163.8541 237° Southwest  Level FlightAware Approximate
04:38AM 50.5806 163.6943 237° Southwest  Level FlightAware Approximate
04:39AM 50.5148 163.5350 237° Southwest  Level FlightAware Approximate
04:40AM 50.4488 163.3762 237° Southwest  Level FlightAware Approximate
04:41AM 50.3825 163.2178 237° Southwest  Level FlightAware Approximate
04:42AM 50.3161 163.0598 237° Southwest  Level FlightAware Approximate
04:43AM 50.2494 162.9023 236° Southwest  Level FlightAware Approximate
04:44AM 50.1825 162.7452 236° Southwest  Level FlightAware Approximate
04:45AM 50.1154 162.5886 236° Southwest  Level FlightAware Approximate
04:46AM 50.0481 162.4324 236° Southwest  Level FlightAware Approximate
04:47AM 49.9805 162.2766 236° Southwest  Level FlightAware Approximate
04:48AM 49.9128 162.1213 236° Southwest  Level FlightAware Approximate
04:49AM 49.8449 161.9664 236° Southwest  Level FlightAware Approximate
04:50AM 49.7767 161.8120 236° Southwest  Level FlightAware Approximate
04:51AM 49.7084 161.6579 235° Southwest  Level FlightAware Approximate
04:52AM 49.6398 161.5043 235° Southwest  Level FlightAware Approximate
04:53AM 49.5711 161.3512 235° Southwest  Level FlightAware Approximate
04:54AM 49.5021 161.1985 258° West  Level FlightAware Approximate
04:55AM 49.4763 161.0186 234° Southwest  Level FlightAware Approximate
04:56AM 49.4054 160.8683 234° Southwest  Level FlightAware Approximate
04:57AM 49.3344 160.7185 234° Southwest  Level FlightAware Approximate
04:58AM 49.2631 160.5690 234° Southwest  Level FlightAware Approximate
04:59AM 49.1916 160.4200 234° Southwest  Level FlightAware Approximate
05:00AM 49.1198 160.2712 234° Southwest  Level FlightAware Approximate
05:01AM 49.0478 160.1229 232° Southwest  Level FlightAware Approximate
05:02AM 48.9748 159.9825 233° Southwest  Level FlightAware Approximate
05:03AM 48.9023 159.8351 233° Southwest  Level FlightAware Approximate
05:04AM 48.8296 159.6882 233° Southwest  Level FlightAware Approximate
05:05AM 48.7568 159.5417 233° Southwest  Level FlightAware Approximate
05:06AM 48.6837 159.3957 233° Southwest  Level FlightAware Approximate
05:07AM 48.6105 159.2500 233° Southwest  Level FlightAware Approximate
05:08AM 48.5371 159.1048 233° Southwest  Level FlightAware Approximate
05:09AM 48.4635 158.9600 232° Southwest  Level FlightAware Approximate
05:10AM 48.3897 158.8157 232° Southwest  Level FlightAware Approximate
05:11AM 48.3158 158.6717 232° Southwest  Level FlightAware Approximate
05:12AM 48.2416 158.5282 232° Southwest  Level FlightAware Approximate
05:13AM 48.1673 158.3850 232° Southwest  Level FlightAware Approximate
05:14AM 48.0928 158.2423 234° Southwest  Level FlightAware Approximate
05:15AM 48.0223 158.0954 232° Southwest  Level FlightAware Approximate
05:16AM 47.9473 157.9537 232° Southwest  Level FlightAware Approximate
05:17AM 47.8722 157.8123 232° Southwest  Level FlightAware Approximate
05:18AM 47.7969 157.6714 231° Southwest  Level FlightAware Approximate
05:19AM 47.7214 157.5309 231° Southwest  Level FlightAware Approximate
05:20AM 47.6457 157.3908 231° Southwest  Level FlightAware Approximate
05:21AM 47.5699 157.2511 234° Southwest  Level FlightAware Approximate
05:22AM 47.4989 157.1067 231° Southwest  Level FlightAware Approximate
05:23AM 47.4225 156.9680 231° Southwest  Level FlightAware Approximate
05:24AM 47.3459 156.8298 231° Southwest  Level FlightAware Approximate
05:25AM 47.2692 156.6920 231° Southwest  Level FlightAware Approximate
05:26AM 47.1923 156.5546 230° Southwest  Level FlightAware Approximate
05:27AM 47.1152 156.4176 231° Southwest  Level FlightAware Approximate
05:28AM 47.0387 156.2801 230° Southwest  Level FlightAware Approximate
05:29AM 46.9613 156.1439 230° Southwest  Level FlightAware Approximate
05:30AM 46.8837 156.0080 230° Southwest  Level FlightAware Approximate
05:31AM 46.8060 155.8726 230° Southwest  Level FlightAware Approximate
05:32AM 46.7281 155.7376 230° Southwest  Level FlightAware Approximate
05:33AM 46.6501 155.6029 230° Southwest  Level FlightAware Approximate
05:34AM 46.5719 155.4687 230° Southwest  Level FlightAware Approximate
05:35AM 46.4935 155.3348 230° Southwest  Level FlightAware Approximate
05:36AM 46.4150 155.2013 229° Southwest  Level FlightAware Approximate
05:37AM 46.3363 155.0682 229° Southwest  Level FlightAware Approximate
05:38AM 46.2575 154.9355 229° Southwest  Level FlightAware Approximate
05:39AM 46.1786 154.8031 229° Southwest  Level FlightAware Approximate
05:40AM 46.0994 154.6712 229° Southwest  Level FlightAware Approximate
05:41AM 46.0201 154.5396 229° Southwest  Level FlightAware Approximate
05:42AM 45.9407 154.4084 229° Southwest  Level FlightAware Approximate
05:43AM 45.8611 154.2776 229° Southwest  Level FlightAware Approximate
05:44AM 45.7814 154.1471 229° Southwest  Level FlightAware Approximate
05:45AM 45.7015 154.0171 229° Southwest  Level FlightAware Approximate
05:46AM 45.6215 153.8873 229° Southwest  Level FlightAware Approximate
05:47AM 45.5413 153.7580 229° Southwest  Level FlightAware Approximate
05:48AM 45.4616 153.6283 228° Southwest  Level FlightAware Approximate
05:49AM 45.3807 153.5002 228° Southwest  Level FlightAware Approximate
05:50AM 45.2997 153.3725 228° Southwest  Level FlightAware Approximate
05:51AM 45.2186 153.2451 228° Southwest  Level FlightAware Approximate
05:52AM 45.1373 153.1181 228° Southwest  Level FlightAware Approximate
05:53AM 45.0559 152.9915 228° Southwest  Level FlightAware Approximate
05:54AM 44.9743 152.8652 228° Southwest  Level FlightAware Approximate
05:55AM 44.8926 152.7393 227° Southwest  Level FlightAware Approximate
05:56AM 44.8108 152.6137 227° Southwest  Level FlightAware Approximate
05:57AM 44.7288 152.4885 227° Southwest  Level FlightAware Approximate
05:58AM 44.6467 152.3636 227° Southwest  Level FlightAware Approximate
05:59AM 44.5645 152.2392 227° Southwest  Level FlightAware Approximate
06:00AM 44.4821 152.1150 227° Southwest  Level FlightAware Approximate
06:01AM 44.3996 151.9912 227° Southwest  Level FlightAware Approximate
06:02AM 44.3169 151.8678 227° Southwest  Level FlightAware Approximate
06:03AM 44.2341 151.7447 227° Southwest  Level FlightAware Approximate
06:04AM 44.1512 151.6219 227° Southwest  Level FlightAware Approximate
06:05AM 44.0682 151.4995 227° Southwest  Level FlightAware Approximate
06:06AM 43.9850 151.3774 226° Southwest  Level FlightAware Approximate
06:07AM 43.9017 151.2557 226° Southwest  Level FlightAware Approximate
06:08AM 43.8182 151.1343 226° Southwest  Level FlightAware Approximate
06:09AM 43.7347 151.0133 226° Southwest  Level FlightAware Approximate
06:10AM 43.6510 150.8926 226° Southwest  Level FlightAware Approximate
06:11AM 43.5672 150.7722 226° Southwest  Level FlightAware Approximate
06:12AM 43.4832 150.6521 226° Southwest  Level FlightAware Approximate
06:13AM 43.3992 150.5324 226° Southwest  Level FlightAware Approximate
06:14AM 43.3150 150.4131 226° Southwest  Level FlightAware Approximate
06:15AM 43.2307 150.2940 226° Southwest  Level FlightAware Approximate
06:16AM 43.1462 150.1753 226° Southwest  Level FlightAware Approximate
06:17AM 43.0617 150.0569 226° Southwest  Level FlightAware Approximate
06:18AM 42.9770 149.9389 226° Southwest  Level FlightAware Approximate
06:19AM 42.8922 149.8212 225° Southwest  Level FlightAware Approximate
06:20AM 42.8073 149.7037 225° Southwest  Level FlightAware Approximate
06:21AM 42.7222 149.5867 225° Southwest  Level FlightAware Approximate
06:22AM 42.6371 149.4699 225° Southwest  Level FlightAware Approximate
06:23AM 42.5518 149.3534 225° Southwest  Level FlightAware Approximate
06:24AM 42.4664 149.2373 225° Southwest  Level FlightAware Approximate
06:25AM 42.3809 149.1215 225° Southwest  Level FlightAware Approximate
06:26AM 42.2953 149.0060 225° Southwest  Level FlightAware Approximate
06:27AM 42.2095 148.8908 225° Southwest  Level FlightAware Approximate
06:28AM 42.1236 148.7759 225° Southwest  Level FlightAware Approximate
06:29AM 42.0377 148.6614 225° Southwest  Level FlightAware Approximate
06:30AM 41.9516 148.5471 225° Southwest  Level FlightAware Approximate
06:31AM 41.8654 148.4332 224° Southwest  Level FlightAware Approximate
06:32AM 41.7791 148.3195 235° Southwest  Level FlightAware Approximate
06:33AM 41.7106 148.1873 222° Southwest  Level FlightAware Approximate
06:34AM 41.6205 148.0793 222° Southwest  Level FlightAware Approximate
06:35AM 41.5302 147.9718 222° Southwest  Level FlightAware Approximate
06:36AM 41.4399 147.8645 222° Southwest  Level FlightAware Approximate
06:37AM 41.3495 147.7574 222° Southwest  Level FlightAware Approximate
06:38AM 41.2589 147.6507 221° Southwest  Level FlightAware Approximate
06:39AM 41.1683 147.5443 221° Southwest  Level FlightAware Approximate
06:40AM 41.0776 147.4382 221° Southwest  Level FlightAware Approximate
06:41AM 40.9868 147.3324 221° Southwest  Level FlightAware Approximate
06:42AM 40.8958 147.2269 221° Southwest  Level FlightAware Approximate
06:43AM 40.8048 147.1216 221° Southwest  Level FlightAware Approximate
06:44AM 40.7137 147.0167 221° Southwest  Level FlightAware Approximate
06:45AM 40.6225 146.9120 221° Southwest  Level FlightAware Approximate
06:46AM 40.5312 146.8076 221° Southwest  Level FlightAware Approximate
06:47AM 40.4398 146.7035 221° Southwest  Level FlightAware Approximate
06:48AM 40.3483 146.5997 221° Southwest  Level FlightAware Approximate
06:49AM 40.2567 146.4962 221° Southwest  Level FlightAware Approximate
06:50AM 40.1651 146.3929 221° Southwest  Level FlightAware Approximate
06:51AM 40.0733 146.2900 221° Southwest  Level FlightAware Approximate
06:52AM 39.9814 146.1873 221° Southwest  Level FlightAware Approximate
06:53AM 39.8895 146.0849 220° Southwest  Level FlightAware Approximate
06:54AM 39.7974 145.9827 220° Southwest  Level FlightAware Approximate
06:55AM 39.7053 145.8808 220° Southwest  Level FlightAware Approximate
06:56AM 39.6131 145.7792 220° Southwest  Level FlightAware Approximate
06:57AM 39.5208 145.6779 220° Southwest  Level FlightAware Approximate
06:58AM 39.4284 145.5769 220° Southwest  Level FlightAware Approximate
06:59AM 39.3359 145.4761 220° Southwest  Level FlightAware Approximate
07:00AM 39.2434 145.3755 220° Southwest  Level FlightAware Approximate
07:01AM 39.1507 145.2753 220° Southwest  Level FlightAware Approximate
07:02AM 39.0580 145.1753 220° Southwest  Level FlightAware Approximate
07:03AM 38.9651 145.0755 220° Southwest  Level FlightAware Approximate
07:04AM 38.8722 144.9761 220° Southwest  Level FlightAware Approximate
07:05AM 38.7792 144.8768 220° Southwest  Level FlightAware Approximate
07:06AM 38.6862 144.7779 228° Southwest  Level FlightAware Approximate
07:07AM 38.6058 144.6622 228° Southwest  Level FlightAware Approximate
07:08AM 38.5254 144.5467 228° Southwest  Level FlightAware Approximate
07:09AM 38.4448 144.4315 228° Southwest  Level FlightAware Approximate
07:10AM 38.3642 144.3166 228° Southwest  Level FlightAware Approximate
07:11AM 38.2834 144.2019 228° Southwest  Level FlightAware Approximate
07:12AM 38.2025 144.0874 228° Southwest  Level FlightAware Approximate
07:13AM 38.1215 143.9733 228° Southwest  Level FlightAware Approximate
07:14AM 38.0404 143.8593 228° Southwest  Level FlightAware Approximate
07:15AM 37.9591 143.7456 228° Southwest  Level FlightAware Approximate
07:16AM 37.8778 143.6322 224° Southwest  Level FlightAware Approximate
07:17AM 37.7910 143.5261 232° Southwest  Level FlightAware Approximate
07:18AM 37.7157 143.4064 231° Southwest  Level FlightAware Approximate
07:19AM 37.6403 143.2870 231° Southwest  Level FlightAware Approximate
07:20AM 37.5647 143.1678 231° Southwest  Level FlightAware Approximate
07:21AM 37.4891 143.0489 231° Southwest  Level FlightAware Approximate
07:22AM 37.4133 142.9302 231° Southwest  Level FlightAware Approximate
07:23AM 37.3374 142.8117 231° Southwest  Level FlightAware Approximate
07:24AM 37.2614 142.6935 231° Southwest  Level FlightAware Approximate
07:25AM 37.1852 142.5755 231° Southwest  Level FlightAware Approximate
07:26AM 37.1090 142.4578 231° Southwest  Level FlightAware Approximate
07:27AM 37.0326 142.3403 231° Southwest  Level FlightAware Approximate
07:28AM 36.9562 142.2230 231° Southwest  Level FlightAware Approximate
07:29AM 36.8796 142.1060 231° Southwest  Level FlightAware Approximate
07:30AM 36.8029 141.9892 231° Southwest  Level FlightAware Approximate
07:31AM 36.7260 141.8726 231° Southwest  Level FlightAware Approximate
07:32AM 36.6491 141.7563 230° Southwest  Level FlightAware Approximate
07:33AM 36.5720 141.6402 230° Southwest  Level FlightAware Approximate
07:34AM 36.4949 141.5243 230° Southwest  Level FlightAware Approximate
07:35AM 36.4176 141.4087 230° Southwest  Level FlightAware Approximate
07:36AM 36.3402 141.2933 230° Southwest  Level FlightAware Approximate
07:37AM 36.2627 141.1781 230° Southwest  Level FlightAware Approximate
07:38AM 36.1851 141.0632 230° Southwest  Level FlightAware Approximate
07:39AM 36.1074 140.9484 230° Southwest  Level FlightAware Approximate
07:40AM 36.0296 140.8340 230° Southwest  Level FlightAware Approximate
07:41AM 35.9516 140.7197 230° Southwest  Level FlightAware Approximate
07:42AM 35.8736 140.6057 230° Southwest  Level FlightAware Approximate
07:43AM 35.7954 140.4918 243° Southwest  Level FlightAware Approximate
07:44AM 35.7500 140.3833 10° North  Level FlightAware Approximate
07:45AM 35.8692 140.4081 190° South  Level Estimated
07:46AM 35.7500 140.3833 10° North  Level FlightAware Approximate
07:47AM 35.8692 140.4081 190° South  Level Estimated
07:48AM 35.7500 140.3833 10° North  Level FlightAware Approximate
07:49AM 35.8692 140.4081 190° South  Level Estimated
07:50AM 35.7500 140.3833 10° North  Level FlightAware Approximate
07:51AM 35.8692 140.4081 190° South  Level Estimated
07:52AM 35.7500 140.3833 10° North  Level FlightAware Approximate
07:53AM 35.8692 140.4081 10° North  Level Estimated